OOCL Atlanta — VRAR6 — position and weather

sailwx.info

Track history (hours):
 
Tides and Currents Weather Stations Pressure Air Temp Water Temp Dewpoint Dewpoint Depression Visibility Wind Speed Wind Dir Waves Ship Positions

OOCL Atlanta

Last reported at 2017-Jul-22 00:00 UTC. Time now 2017-Jul-22 06:38 UTC.
Position N 06°06' E 091°06'.

Length 323 m; beam 42.8 m; draft 14.5 m.

Type: Cargo ship. MMSI: 477920300.

Wind from 190 at 19 knots

Barometer 1005.0 mb
Air temperature 27.0 ° C
Visibility: greater than 10.8 NM
Dewpoint 24.3 ° C
Water temperature 30.0 ° C

Date/timePositionNaut miles runAvg speedWind from/ knotsBaromVisibWave heightAir tempDewpointWater temp
2017-Jul-22 00:00N 06°06' E 091°06'32918.3 190 / 191005.010.8 27.024.330.0
2017-Jul-21 06:00N 05°48' E 096°36'48318.4 110 / 61008.010.8 32.025.331.1
2017-Jul-20 03:41N 01°19' E 103°18'316.9
2017-Jul-20 03:29N 01°17' E 103°21'715.0
2017-Jul-20 03:00N 01°14' E 103°28'713.6
2017-Jul-20 02:30N 01°12' E 103°34'611.1
2017-Jul-20 02:00N 01°13' E 103°40'713.3
2017-Jul-20 01:30N 01°16' E 103°45'1 2.8
2017-Jul-20 01:00N 01°16' E 103°47'0 0.5
2017-Jul-20 00:29N 01°16' E 103°47'0 0.0
2017-Jul-19 23:59N 01°16' E 103°47'0 0.0
2017-Jul-19 23:29N 01°16' E 103°47'0 0.0
2017-Jul-19 22:56N 01°16' E 103°47'0 0.0
2017-Jul-19 22:29N 01°16' E 103°47'0 0.0
2017-Jul-19 21:59N 01°16' E 103°47'0 0.0
2017-Jul-19 21:29N 01°16' E 103°47'0 0.0
2017-Jul-19 20:59N 01°16' E 103°47'0 0.0
2017-Jul-19 20:29N 01°16' E 103°47'0 0.0
2017-Jul-19 19:59N 01°16' E 103°47'0 0.0
2017-Jul-19 19:29N 01°16' E 103°47'0 0.0
2017-Jul-19 18:59N 01°16' E 103°47'0 0.0
2017-Jul-19 18:29N 01°16' E 103°47'0 0.0
2017-Jul-19 17:59N 01°16' E 103°47'0 0.0
2017-Jul-19 17:29N 01°16' E 103°47'0 0.0
2017-Jul-19 16:56N 01°16' E 103°47'0 0.0
2017-Jul-19 16:29N 01°16' E 103°47'0 0.0
2017-Jul-19 15:59N 01°16' E 103°47'0 0.0
2017-Jul-19 15:29N 01°16' E 103°47'0 0.0
2017-Jul-19 14:59N 01°16' E 103°47'0 0.0
2017-Jul-19 14:29N 01°16' E 103°47'0 0.0
2017-Jul-19 13:59N 01°16' E 103°47'0 0.0
2017-Jul-19 13:29N 01°16' E 103°47'0 0.0
2017-Jul-19 12:59N 01°16' E 103°47'0 0.0
2017-Jul-19 12:29N 01°16' E 103°47'0 0.0
2017-Jul-19 11:59N 01°16' E 103°47'0 0.0
2017-Jul-19 11:29N 01°16' E 103°47'0 0.0
2017-Jul-19 10:59N 01°16' E 103°47'0 0.0
2017-Jul-19 10:29N 01°16' E 103°47'0 0.0
2017-Jul-19 09:59N 01°16' E 103°47'0 0.0
2017-Jul-19 09:29N 01°16' E 103°47'0 0.0
2017-Jul-19 08:56N 01°16' E 103°47'0 0.0
2017-Jul-19 08:29N 01°16' E 103°47'0 0.0
2017-Jul-19 07:59N 01°16' E 103°47'0 0.0
2017-Jul-19 07:29N 01°16' E 103°47'0 0.0
2017-Jul-19 06:59N 01°16' E 103°47'0 0.5
2017-Jul-19 06:30N 01°16' E 103°47'3 5.9
2017-Jul-19 06:00N 01°13' E 103°48'510.1
2017-Jul-19 05:30N 01°13' E 103°53'1 2.1
2017-Jul-19 05:00N 01°14' E 103°54'1 1.4
2017-Jul-19 04:30N 01°14' E 103°54'3 5.7
2017-Jul-19 04:00N 01°15' E 103°57'4 7.1
2017-Jul-19 03:31N 01°16' E 104°00'5 8.6
2017-Jul-19 02:58N 01°16' E 104°05'32615.5
2017-Jul-18 06:00N 05°48' E 107°06'62617.4 230 / 161008.010.8 30.024.630.7
2017-Jul-16 18:00N 15°30' E 111°00'39316.4 180 / 211010.010.8 25.025.030.0
2017-Jul-15 18:00N 21°24' E 114°00'56 2.0 090 / 161003.010.8 28.026.7
2017-Jul-14 14:44N 22°19' E 114°07'1 0.1
2017-Jul-14 06:04N 22°20' E 114°07'1 3.8
2017-Jul-14 05:48N 22°20' E 114°07'22216.2
2017-Jul-13 16:07N 23°38' E 117°53'617.9
2017-Jul-13 15:48N 23°42' E 117°57'518.0
2017-Jul-13 15:30N 23°46' E 118°02'918.1
2017-Jul-13 15:00N 23°53' E 118°07'1918.0
2017-Jul-13 13:56N 24°07' E 118°22'818.1
2017-Jul-13 13:29N 24°11' E 118°29'1718.1
2017-Jul-13 12:33N 24°21' E 118°44'3718.2
2017-Jul-13 10:33N 24°41' E 119°18'217.9
2017-Jul-13 10:26N 24°42' E 119°20'818.0
2017-Jul-13 10:00N 24°46' E 119°27'917.5
2017-Jul-13 09:30N 24°51' E 119°35'917.4
2017-Jul-13 09:00N 24°57' E 119°42'2417.7
2017-Jul-13 07:39N 25°10' E 120°04'  
Track history (hours):
 
Tides and Currents Weather Stations Pressure Air Temp Water Temp Dewpoint Dewpoint Depression Visibility Wind Speed Wind Dir Waves Ship Positions

OOCL Atlanta

Last reported at 2017-Jul-22 00:00 UTC. Time now 2017-Jul-22 06:38 UTC.
Position N 06°06' E 091°06'.

Length 323 m; beam 42.8 m; draft 14.5 m.

Type: Cargo ship. MMSI: 477920300.

Wind from 190 at 19 knots

Barometer 1005.0 mb
Air temperature 27.0 ° C
Visibility: greater than 10.8 NM
Dewpoint 24.3 ° C
Water temperature 30.0 ° C

Date/timePositionNaut miles runAvg speedWind from/ knotsBaromVisibWave heightAir tempDewpointWater temp
2017-Jul-22 00:00N 06°06' E 091°06'32918.3 190 / 191005.010.8 27.024.330.0
2017-Jul-21 06:00N 05°48' E 096°36'48318.4 110 / 61008.010.8 32.025.331.1
2017-Jul-20 03:41N 01°19' E 103°18'316.9
2017-Jul-20 03:29N 01°17' E 103°21'715.0
2017-Jul-20 03:00N 01°14' E 103°28'713.6
2017-Jul-20 02:30N 01°12' E 103°34'611.1
2017-Jul-20 02:00N 01°13' E 103°40'713.3
2017-Jul-20 01:30N 01°16' E 103°45'1 2.8
2017-Jul-20 01:00N 01°16' E 103°47'0 0.5
2017-Jul-20 00:29N 01°16' E 103°47'0 0.0
2017-Jul-19 23:59N 01°16' E 103°47'0 0.0
2017-Jul-19 23:29N 01°16' E 103°47'0 0.0
2017-Jul-19 22:56N 01°16' E 103°47'0 0.0
2017-Jul-19 22:29N 01°16' E 103°47'0 0.0
2017-Jul-19 21:59N 01°16' E 103°47'0 0.0
2017-Jul-19 21:29N 01°16' E 103°47'0 0.0
2017-Jul-19 20:59N 01°16' E 103°47'0 0.0
2017-Jul-19 20:29N 01°16' E 103°47'0 0.0
2017-Jul-19 19:59N 01°16' E 103°47'0 0.0
2017-Jul-19 19:29N 01°16' E 103°47'0 0.0
2017-Jul-19 18:59N 01°16' E 103°47'0 0.0
2017-Jul-19 18:29N 01°16' E 103°47'0 0.0
2017-Jul-19 17:59N 01°16' E 103°47'0 0.0
2017-Jul-19 17:29N 01°16' E 103°47'0 0.0
2017-Jul-19 16:56N 01°16' E 103°47'0 0.0
2017-Jul-19 16:29N 01°16' E 103°47'0 0.0
2017-Jul-19 15:59N 01°16' E 103°47'0 0.0
2017-Jul-19 15:29N 01°16' E 103°47'0 0.0
2017-Jul-19 14:59N 01°16' E 103°47'0 0.0
2017-Jul-19 14:29N 01°16' E 103°47'0 0.0
2017-Jul-19 13:59N 01°16' E 103°47'0 0.0
2017-Jul-19 13:29N 01°16' E 103°47'0 0.0
2017-Jul-19 12:59N 01°16' E 103°47'0 0.0
2017-Jul-19 12:29N 01°16' E 103°47'0 0.0
2017-Jul-19 11:59N 01°16' E 103°47'0 0.0
2017-Jul-19 11:29N 01°16' E 103°47'0 0.0
2017-Jul-19 10:59N 01°16' E 103°47'0 0.0
2017-Jul-19 10:29N 01°16' E 103°47'0 0.0
2017-Jul-19 09:59N 01°16' E 103°47'0 0.0
2017-Jul-19 09:29N 01°16' E 103°47'0 0.0
2017-Jul-19 08:56N 01°16' E 103°47'0 0.0
2017-Jul-19 08:29N 01°16' E 103°47'0 0.0
2017-Jul-19 07:59N 01°16' E 103°47'0 0.0
2017-Jul-19 07:29N 01°16' E 103°47'0 0.0
2017-Jul-19 06:59N 01°16' E 103°47'0 0.5
2017-Jul-19 06:30N 01°16' E 103°47'3 5.9
2017-Jul-19 06:00N 01°13' E 103°48'510.1
2017-Jul-19 05:30N 01°13' E 103°53'1 2.1
2017-Jul-19 05:00N 01°14' E 103°54'1 1.4
2017-Jul-19 04:30N 01°14' E 103°54'3 5.7
2017-Jul-19 04:00N 01°15' E 103°57'4 7.1
2017-Jul-19 03:31N 01°16' E 104°00'5 8.6
2017-Jul-19 02:58N 01°16' E 104°05'32615.5
2017-Jul-18 06:00N 05°48' E 107°06'62617.4 230 / 161008.010.8 30.024.630.7
2017-Jul-16 18:00N 15°30' E 111°00'39316.4 180 / 211010.010.8 25.025.030.0
2017-Jul-15 18:00N 21°24' E 114°00'56 2.0 090 / 161003.010.8 28.026.7
2017-Jul-14 14:44N 22°19' E 114°07'1 0.1
2017-Jul-14 06:04N 22°20' E 114°07'1 3.8
2017-Jul-14 05:48N 22°20' E 114°07'22216.2
2017-Jul-13 16:07N 23°38' E 117°53'617.9
2017-Jul-13 15:48N 23°42' E 117°57'518.0
2017-Jul-13 15:30N 23°46' E 118°02'918.1
2017-Jul-13 15:00N 23°53' E 118°07'1918.0
2017-Jul-13 13:56N 24°07' E 118°22'818.1
2017-Jul-13 13:29N 24°11' E 118°29'1718.1
2017-Jul-13 12:33N 24°21' E 118°44'3718.2
2017-Jul-13 10:33N 24°41' E 119°18'217.9
2017-Jul-13 10:26N 24°42' E 119°20'818.0
2017-Jul-13 10:00N 24°46' E 119°27'917.5
2017-Jul-13 09:30N 24°51' E 119°35'917.4
2017-Jul-13 09:00N 24°57' E 119°42'2417.7
2017-Jul-13 07:39N 25°10' E 120°04'  

Dump ship's entire track history